Погода Гарангона 2 недели

Банфора, Буркина-Фасо

24 февраля-08 марта
  • 24февраля
    Сегодня
    +23°
    +37°
    Облачно с прояснениями
    ВремяПогодаТемператураВлажностьДавлениеВетер, м/сВероятность осадков
    00:00Ясно и безоблачно+26°C17 %738 мм2.5 м/с2 %
    03:00Ясно и безоблачно+24°C17 %737 мм2.7 м/с2 %
    06:00Небольшая облачность+22°C20 %738 мм2.2 м/с2 %
    09:00Облачно с прояснениями+29°C18 %740 мм0.8 м/с2 %
    12:00Облачно с прояснениями+35°C27 %738 мм2.2 м/с2 %
    15:00Облачно с прояснениями+37°C21 %736 мм1.2 м/с2 %
    18:00Облачно с прояснениями+34°C25 %737 мм0.8 м/с2 %
    21:00Облачно с прояснениями+29°C30 %738 мм1.8 м/с2 %
  • 25февраля
    Воскресенье
    +25°
    +39°
    Ясно и безоблачно
    ВремяПогодаТемператураВлажностьДавлениеВетер, м/сВероятность осадков
    00:00Ясно и безоблачно+27°C34 %738 мм1.1 м/с2 %
    03:00Небольшая облачность+25°C35 %737 мм1.8 м/с2 %
    06:00Ясно и безоблачно+24°C30 %738 мм2.6 м/с2 %
    09:00Ясно и безоблачно+30°C19 %740 мм1.8 м/с2 %
    12:00Ясно и безоблачно+37°C18 %739 мм2.7 м/с2 %
    15:00Ясно и безоблачно+38°C17 %736 мм1.6 м/с2 %
    18:00Ясно и безоблачно+36°C23 %736 мм1.5 м/с2 %
    21:00Практически безоблачно+30°C33 %738 мм1.0 м/с2 %
  • 26февраля
    Понедельник
    +24°
    +39°
    Ясно и безоблачно
    ВремяПогодаТемператураВлажностьДавлениеВетер, м/сВероятность осадков
    00:00Ясно и безоблачно+28°C27 %738 мм2.5 м/с2 %
    03:00Ясно и безоблачно+26°C24 %737 мм2.7 м/с2 %
    06:00Ясно и безоблачно+26°C24 %737 мм2.9 м/с2 %
    09:00Ясно и безоблачно+31°C17 %739 мм2.9 м/с2 %
    12:00Практически безоблачно+37°C10 %738 мм4.5 м/с2 %
    15:00Ясно и безоблачно+38°C13 %735 мм2.1 м/с2 %
    18:00Ясно и безоблачно+36°C20 %735 мм1.6 м/с2 %
    21:00Ясно и безоблачно+30°C20 %737 мм2.1 м/с2 %
  • 27февраля
    Вторник
    +25°
    +39°
    Ясно и безоблачно
    ВремяПогодаТемператураВлажностьДавлениеВетер, м/сВероятность осадков
    00:00Ясно и безоблачно+28°C20 %737 мм2.0 м/с2 %
    03:00Практически безоблачно+27°C23 %735 мм1.6 м/с2 %
    06:00Практически безоблачно+25°C24 %736 мм1.8 м/с2 %
    09:00Ясно и безоблачно+32°C15 %738 мм2.2 м/с2 %
    12:00Практически безоблачно+37°C9 %737 мм2.8 м/с2 %
    15:00Ясно и безоблачно+39°C9 %735 мм1.4 м/с2 %
    18:00Ясно и безоблачно+36°C15 %735 мм0.6 м/с2 %
    21:00Ясно и безоблачно+32°C18 %736 мм1.3 м/с2 %
  • 28февраля
    Среда
    +25°
    +38°
    Ясно и безоблачно
    ВремяПогодаТемператураВлажностьДавлениеВетер, м/сВероятность осадков
    00:00Ясно и безоблачно+30°C23 %736 мм0.6 м/с2 %
    03:00Ясно и безоблачно+26°C27 %735 мм1.0 м/с2 %
    06:00Ясно и безоблачно+26°C32 %736 мм1.4 м/с2 %
    09:00Ясно и безоблачно+31°C20 %738 мм0.8 м/с2 %
    12:00Ясно и безоблачно+36°C16 %736 мм0.4 м/с2 %
    15:00Ясно и безоблачно+38°C12 %734 мм1.1 м/с2 %
    18:00Ясно и безоблачно+35°C14 %734 мм2.5 м/с2 %
    21:00Ясно и безоблачно+30°C14 %735 мм2.7 м/с2 %
Мы используем cookies
Соглашаюсь